KRBD

Dallas Executive Airport

Dallas, Texas, USA
METAR KRBD 212253Z 12006KT 10SM FEW070 SCT085 37/19 A2983 RMK AO2 SLP091 T03670194
Observed Flight Rules
Jun-21 @ 22:53 UTC (an hour ago) Visual Flight Rules
Wind Visibility Clouds
120° at 6 knots 10 miles
  • Few at 7,000' AGL
  • Scattered at 8,500' AGL
Temperatures Readings
Current 37°C / 99°F
Dewpoint 19°C / 66°F
Humidity 35%
Altimeter 29.83" Hg
Pressure 1009.1 hPa
Elevation 203
METAR KRBD 212253Z 12006KT 10SM FEW070 SCT085 37/19 A2983 RMK AO2 SLP091 T03670194
Observed Flight Rules
Jun-21 @ 22:53 UTC
(an hour ago)
VFR
Wind Visibility
120° at 6 knots 10 miles
Clouds
  • Few at 7,000' AGL
  • Scattered at 8,500' AGL
Temperature Dewpoint
37°C / 99°F 19°C / 66°F
Humidity Altimeter Pressure
35% 29.83" Hg 1009.1 hPa